sensor_id;sensor_type;location;lat;lon;timestamp;P1;durP1;ratioP1;P2;durP2;ratioP2
74656;SDS011;63185;45.642;13.764;2023-04-07T00:00:40;28.45;;;11.18;;
74656;SDS011;63185;45.642;13.764;2023-04-07T00:03:05;22.80;;;10.70;;
74656;SDS011;63185;45.642;13.764;2023-04-07T00:05:32;21.05;;;10.25;;
74656;SDS011;63185;45.642;13.764;2023-04-07T00:07:58;23.10;;;11.20;;
74656;SDS011;63185;45.642;13.764;2023-04-07T00:10:24;26.02;;;10.48;;
74656;SDS011;63185;45.642;13.764;2023-04-07T00:12:50;19.27;;;9.85;;
74656;SDS011;63185;45.642;13.764;2023-04-07T00:15:16;20.45;;;10.63;;
74656;SDS011;63185;45.642;13.764;2023-04-07T00:17:42;22.65;;;11.25;;
74656;SDS011;63185;45.642;13.764;2023-04-07T00:20:08;23.48;;;10.82;;
74656;SDS011;63185;45.642;13.764;2023-04-07T00:22:33;25.88;;;11.32;;
74656;SDS011;63185;45.642;13.764;2023-04-07T00:24:59;26.05;;;11.88;;
74656;SDS011;63185;45.642;13.764;2023-04-07T00:27:25;24.52;;;10.70;;
74656;SDS011;63185;45.642;13.764;2023-04-07T00:29:51;22.23;;;11.45;;
74656;SDS011;63185;45.642;13.764;2023-04-07T00:32:19;28.20;;;12.07;;
74656;SDS011;63185;45.642;13.764;2023-04-07T00:34:45;24.08;;;11.38;;
74656;SDS011;63185;45.642;13.764;2023-04-07T00:37:11;21.42;;;11.13;;
74656;SDS011;63185;45.642;13.764;2023-04-07T00:39:36;23.55;;;11.02;;
74656;SDS011;63185;45.642;13.764;2023-04-07T00:42:02;21.13;;;11.25;;
74656;SDS011;63185;45.642;13.764;2023-04-07T00:44:30;22.80;;;11.18;;
74656;SDS011;63185;45.642;13.764;2023-04-07T00:46:56;24.65;;;11.23;;
74656;SDS011;63185;45.642;13.764;2023-04-07T00:49:22;20.25;;;11.10;;
74656;SDS011;63185;45.642;13.764;2023-04-07T00:51:49;23.70;;;11.73;;
74656;SDS011;63185;45.642;13.764;2023-04-07T00:54:15;21.27;;;10.88;;
74656;SDS011;63185;45.642;13.764;2023-04-07T00:56:42;21.55;;;11.07;;
74656;SDS011;63185;45.642;13.764;2023-04-07T00:59:08;21.38;;;11.25;;
74656;SDS011;63185;45.642;13.764;2023-04-07T01:01:43;22.23;;;10.73;;
74656;SDS011;63185;45.642;13.764;2023-04-07T01:04:26;18.80;;;10.20;;
74656;SDS011;63185;45.642;13.764;2023-04-07T01:07:08;25.02;;;11.63;;
74656;SDS011;63185;45.642;13.764;2023-04-07T01:09:46;20.60;;;10.95;;
74656;SDS011;63185;45.642;13.764;2023-04-07T01:12:31;21.02;;;10.00;;
74656;SDS011;63185;45.642;13.764;2023-04-07T01:17:38;22.52;;;10.48;;
74656;SDS011;63185;45.642;13.764;2023-04-07T01:20:10;22.85;;;10.90;;
74656;SDS011;63185;45.642;13.764;2023-04-07T01:22:40;24.38;;;11.07;;
74656;SDS011;63185;45.642;13.764;2023-04-07T01:31:03;23.77;;;10.98;;
74656;SDS011;63185;45.642;13.764;2023-04-07T01:33:32;21.77;;;10.23;;
74656;SDS011;63185;45.642;13.764;2023-04-07T01:35:59;22.88;;;10.30;;
74656;SDS011;63185;45.642;13.764;2023-04-07T01:38:26;23.20;;;10.48;;
74656;SDS011;63185;45.642;13.764;2023-04-07T01:40:53;22.98;;;10.20;;
74656;SDS011;63185;45.642;13.764;2023-04-07T01:43:20;21.33;;;9.95;;
74656;SDS011;63185;45.642;13.764;2023-04-07T01:45:48;23.23;;;9.80;;
74656;SDS011;63185;45.642;13.764;2023-04-07T01:48:15;21.55;;;10.75;;
74656;SDS011;63185;45.642;13.764;2023-04-07T01:50:42;25.05;;;10.05;;
74656;SDS011;63185;45.642;13.764;2023-04-07T01:53:08;20.67;;;9.55;;
74656;SDS011;63185;45.642;13.764;2023-04-07T01:55:36;22.85;;;10.13;;
74656;SDS011;63185;45.642;13.764;2023-04-07T01:58:08;19.30;;;9.73;;
74656;SDS011;63185;45.642;13.764;2023-04-07T02:00:34;21.58;;;9.63;;
74656;SDS011;63185;45.642;13.764;2023-04-07T02:03:08;20.83;;;10.02;;
74656;SDS011;63185;45.642;13.764;2023-04-07T02:05:44;19.73;;;9.20;;
74656;SDS011;63185;45.642;13.764;2023-04-07T02:08:13;22.50;;;10.00;;
74656;SDS011;63185;45.642;13.764;2023-04-07T02:10:41;19.98;;;8.95;;
74656;SDS011;63185;45.642;13.764;2023-04-07T02:13:12;19.17;;;9.25;;
74656;SDS011;63185;45.642;13.764;2023-04-07T02:15:40;20.27;;;9.95;;
74656;SDS011;63185;45.642;13.764;2023-04-07T02:18:09;23.02;;;9.40;;
74656;SDS011;63185;45.642;13.764;2023-04-07T02:20:37;20.33;;;9.63;;
74656;SDS011;63185;45.642;13.764;2023-04-07T02:23:06;23.33;;;10.32;;
74656;SDS011;63185;45.642;13.764;2023-04-07T02:25:35;19.75;;;9.95;;
74656;SDS011;63185;45.642;13.764;2023-04-07T02:28:03;23.60;;;10.50;;
74656;SDS011;63185;45.642;13.764;2023-04-07T02:30:30;19.60;;;9.85;;
74656;SDS011;63185;45.642;13.764;2023-04-07T02:32:56;21.67;;;10.10;;
74656;SDS011;63185;45.642;13.764;2023-04-07T02:35:22;20.60;;;9.93;;
74656;SDS011;63185;45.642;13.764;2023-04-07T02:37:48;18.10;;;10.00;;
74656;SDS011;63185;45.642;13.764;2023-04-07T02:40:14;22.33;;;10.18;;
74656;SDS011;63185;45.642;13.764;2023-04-07T02:42:40;22.45;;;11.80;;
74656;SDS011;63185;45.642;13.764;2023-04-07T02:45:06;22.63;;;10.38;;
74656;SDS011;63185;45.642;13.764;2023-04-07T02:47:33;24.85;;;11.38;;
74656;SDS011;63185;45.642;13.764;2023-04-07T02:50:00;21.58;;;11.10;;
74656;SDS011;63185;45.642;13.764;2023-04-07T02:52:26;22.60;;;11.50;;
74656;SDS011;63185;45.642;13.764;2023-04-07T02:54:52;20.30;;;11.13;;
74656;SDS011;63185;45.642;13.764;2023-04-07T02:57:17;22.95;;;11.43;;
74656;SDS011;63185;45.642;13.764;2023-04-07T02:59:43;27.92;;;12.60;;
74656;SDS011;63185;45.642;13.764;2023-04-07T03:02:09;23.73;;;11.20;;
74656;SDS011;63185;45.642;13.764;2023-04-07T03:04:35;24.00;;;11.70;;
74656;SDS011;63185;45.642;13.764;2023-04-07T03:07:00;21.80;;;10.93;;
74656;SDS011;63185;45.642;13.764;2023-04-07T03:09:26;18.98;;;9.38;;
74656;SDS011;63185;45.642;13.764;2023-04-07T03:11:52;21.45;;;10.32;;
74656;SDS011;63185;45.642;13.764;2023-04-07T03:14:18;20.25;;;10.15;;
74656;SDS011;63185;45.642;13.764;2023-04-07T03:16:43;23.27;;;10.50;;
74656;SDS011;63185;45.642;13.764;2023-04-07T03:19:09;20.02;;;10.18;;
74656;SDS011;63185;45.642;13.764;2023-04-07T03:21:36;24.00;;;10.32;;
74656;SDS011;63185;45.642;13.764;2023-04-07T03:24:02;24.23;;;10.40;;
74656;SDS011;63185;45.642;13.764;2023-04-07T03:26:31;20.25;;;9.60;;
74656;SDS011;63185;45.642;13.764;2023-04-07T03:28:57;21.55;;;10.43;;
74656;SDS011;63185;45.642;13.764;2023-04-07T03:31:23;22.42;;;11.00;;
74656;SDS011;63185;45.642;13.764;2023-04-07T03:33:49;22.92;;;10.52;;
74656;SDS011;63185;45.642;13.764;2023-04-07T03:36:14;20.60;;;10.77;;
74656;SDS011;63185;45.642;13.764;2023-04-07T03:38:41;24.77;;;11.02;;
74656;SDS011;63185;45.642;13.764;2023-04-07T03:41:07;22.15;;;11.02;;
74656;SDS011;63185;45.642;13.764;2023-04-07T03:43:33;21.35;;;10.77;;
74656;SDS011;63185;45.642;13.764;2023-04-07T03:45:59;24.05;;;11.23;;
74656;SDS011;63185;45.642;13.764;2023-04-07T03:48:24;28.52;;;11.43;;
74656;SDS011;63185;45.642;13.764;2023-04-07T03:50:50;23.00;;;11.45;;
74656;SDS011;63185;45.642;13.764;2023-04-07T03:53:16;23.35;;;12.05;;
74656;SDS011;63185;45.642;13.764;2023-04-07T03:55:43;27.80;;;11.95;;
74656;SDS011;63185;45.642;13.764;2023-04-07T03:58:09;25.75;;;12.20;;
74656;SDS011;63185;45.642;13.764;2023-04-07T04:00:35;29.55;;;13.30;;
74656;SDS011;63185;45.642;13.764;2023-04-07T04:03:01;24.38;;;12.32;;
74656;SDS011;63185;45.642;13.764;2023-04-07T04:05:27;27.05;;;13.43;;
74656;SDS011;63185;45.642;13.764;2023-04-07T04:07:53;22.35;;;12.07;;
74656;SDS011;63185;45.642;13.764;2023-04-07T04:10:19;26.48;;;12.85;;
74656;SDS011;63185;45.642;13.764;2023-04-07T04:12:48;24.67;;;11.38;;
74656;SDS011;63185;45.642;13.764;2023-04-07T04:15:14;21.80;;;11.35;;
74656;SDS011;63185;45.642;13.764;2023-04-07T04:17:41;23.50;;;11.88;;
74656;SDS011;63185;45.642;13.764;2023-04-07T04:20:07;22.20;;;10.57;;
74656;SDS011;63185;45.642;13.764;2023-04-07T04:22:33;22.80;;;10.48;;
74656;SDS011;63185;45.642;13.764;2023-04-07T04:24:59;22.88;;;11.07;;
74656;SDS011;63185;45.642;13.764;2023-04-07T04:27:26;21.42;;;10.63;;
74656;SDS011;63185;45.642;13.764;2023-04-07T04:29:53;21.95;;;10.50;;
74656;SDS011;63185;45.642;13.764;2023-04-07T04:32:19;22.83;;;10.27;;
74656;SDS011;63185;45.642;13.764;2023-04-07T04:34:45;21.50;;;10.32;;
74656;SDS011;63185;45.642;13.764;2023-04-07T04:37:11;21.10;;;10.23;;
74656;SDS011;63185;45.642;13.764;2023-04-07T04:39:36;26.25;;;11.48;;
74656;SDS011;63185;45.642;13.764;2023-04-07T04:42:02;23.65;;;11.80;;
74656;SDS011;63185;45.642;13.764;2023-04-07T04:44:29;21.13;;;11.25;;
74656;SDS011;63185;45.642;13.764;2023-04-07T04:46:54;23.73;;;11.88;;
74656;SDS011;63185;45.642;13.764;2023-04-07T04:49:20;23.10;;;11.73;;
74656;SDS011;63185;45.642;13.764;2023-04-07T04:51:46;24.05;;;11.65;;
74656;SDS011;63185;45.642;13.764;2023-04-07T04:54:12;25.75;;;12.60;;
74656;SDS011;63185;45.642;13.764;2023-04-07T04:56:38;27.63;;;11.73;;
74656;SDS011;63185;45.642;13.764;2023-04-07T04:59:04;25.30;;;12.02;;
74656;SDS011;63185;45.642;13.764;2023-04-07T05:01:30;27.85;;;12.10;;
74656;SDS011;63185;45.642;13.764;2023-04-07T05:03:56;25.10;;;12.15;;
74656;SDS011;63185;45.642;13.764;2023-04-07T05:06:21;23.10;;;11.30;;
74656;SDS011;63185;45.642;13.764;2023-04-07T05:08:47;27.40;;;12.35;;
74656;SDS011;63185;45.642;13.764;2023-04-07T05:11:13;30.00;;;13.07;;
74656;SDS011;63185;45.642;13.764;2023-04-07T05:13:39;28.83;;;12.93;;
74656;SDS011;63185;45.642;13.764;2023-04-07T05:16:05;24.00;;;11.85;;
74656;SDS011;63185;45.642;13.764;2023-04-07T05:18:31;28.10;;;12.50;;
74656;SDS011;63185;45.642;13.764;2023-04-07T05:20:57;29.83;;;13.25;;
74656;SDS011;63185;45.642;13.764;2023-04-07T05:23:22;26.23;;;13.70;;
74656;SDS011;63185;45.642;13.764;2023-04-07T05:25:48;27.20;;;13.25;;
74656;SDS011;63185;45.642;13.764;2023-04-07T05:28:14;25.55;;;12.90;;
74656;SDS011;63185;45.642;13.764;2023-04-07T05:30:40;30.02;;;12.32;;
74656;SDS011;63185;45.642;13.764;2023-04-07T05:33:06;24.05;;;12.32;;
74656;SDS011;63185;45.642;13.764;2023-04-07T05:35:32;27.83;;;13.50;;
74656;SDS011;63185;45.642;13.764;2023-04-07T05:37:57;25.85;;;13.27;;
74656;SDS011;63185;45.642;13.764;2023-04-07T05:40:23;28.70;;;13.68;;
74656;SDS011;63185;45.642;13.764;2023-04-07T05:42:49;29.77;;;12.98;;
74656;SDS011;63185;45.642;13.764;2023-04-07T05:45:15;27.20;;;14.07;;
74656;SDS011;63185;45.642;13.764;2023-04-07T05:47:41;26.73;;;13.80;;
74656;SDS011;63185;45.642;13.764;2023-04-07T05:50:06;27.00;;;13.35;;
74656;SDS011;63185;45.642;13.764;2023-04-07T05:52:32;27.85;;;13.50;;
74656;SDS011;63185;45.642;13.764;2023-04-07T05:54:58;26.60;;;14.35;;
74656;SDS011;63185;45.642;13.764;2023-04-07T05:57:24;25.02;;;13.75;;
74656;SDS011;63185;45.642;13.764;2023-04-07T05:59:52;29.17;;;14.65;;
74656;SDS011;63185;45.642;13.764;2023-04-07T06:02:17;30.25;;;14.50;;
74656;SDS011;63185;45.642;13.764;2023-04-07T06:04:43;27.30;;;14.68;;
74656;SDS011;63185;45.642;13.764;2023-04-07T06:07:09;31.88;;;14.63;;
74656;SDS011;63185;45.642;13.764;2023-04-07T06:09:35;34.30;;;16.10;;
74656;SDS011;63185;45.642;13.764;2023-04-07T06:12:00;29.52;;;14.70;;
74656;SDS011;63185;45.642;13.764;2023-04-07T06:14:29;31.75;;;15.90;;
74656;SDS011;63185;45.642;13.764;2023-04-07T06:16:54;32.38;;;16.23;;
74656;SDS011;63185;45.642;13.764;2023-04-07T06:19:20;30.83;;;15.23;;
74656;SDS011;63185;45.642;13.764;2023-04-07T06:21:46;28.30;;;14.27;;
74656;SDS011;63185;45.642;13.764;2023-04-07T06:24:12;32.45;;;15.05;;
74656;SDS011;63185;45.642;13.764;2023-04-07T06:26:38;29.95;;;15.15;;
74656;SDS011;63185;45.642;13.764;2023-04-07T06:29:05;28.75;;;14.93;;
74656;SDS011;63185;45.642;13.764;2023-04-07T06:31:31;32.17;;;14.35;;
74656;SDS011;63185;45.642;13.764;2023-04-07T06:33:57;26.23;;;13.75;;
74656;SDS011;63185;45.642;13.764;2023-04-07T06:36:22;26.27;;;13.25;;
74656;SDS011;63185;45.642;13.764;2023-04-07T06:38:48;26.80;;;13.70;;
74656;SDS011;63185;45.642;13.764;2023-04-07T06:41:14;32.45;;;14.30;;
74656;SDS011;63185;45.642;13.764;2023-04-07T06:43:43;27.45;;;13.95;;
74656;SDS011;63185;45.642;13.764;2023-04-07T06:46:10;31.27;;;14.18;;
74656;SDS011;63185;45.642;13.764;2023-04-07T06:48:36;28.35;;;14.90;;
74656;SDS011;63185;45.642;13.764;2023-04-07T06:51:02;33.70;;;15.93;;
74656;SDS011;63185;45.642;13.764;2023-04-07T06:53:28;30.45;;;14.73;;
74656;SDS011;63185;45.642;13.764;2023-04-07T06:56:06;34.50;;;15.10;;
74656;SDS011;63185;45.642;13.764;2023-04-07T06:58:34;29.80;;;14.57;;
74656;SDS011;63185;45.642;13.764;2023-04-07T07:01:01;30.38;;;13.23;;
74656;SDS011;63185;45.642;13.764;2023-04-07T07:03:27;33.75;;;13.77;;
74656;SDS011;63185;45.642;13.764;2023-04-07T07:05:56;31.92;;;13.20;;
74656;SDS011;63185;45.642;13.764;2023-04-07T07:08:23;28.77;;;13.00;;
74656;SDS011;63185;45.642;13.764;2023-04-07T07:10:49;30.02;;;14.88;;
74656;SDS011;63185;45.642;13.764;2023-04-07T07:13:15;27.05;;;13.77;;
74656;SDS011;63185;45.642;13.764;2023-04-07T07:15:42;29.85;;;14.30;;
74656;SDS011;63185;45.642;13.764;2023-04-07T07:18:08;31.92;;;14.32;;
74656;SDS011;63185;45.642;13.764;2023-04-07T07:20:33;32.60;;;13.88;;
74656;SDS011;63185;45.642;13.764;2023-04-07T07:22:59;31.33;;;13.63;;
74656;SDS011;63185;45.642;13.764;2023-04-07T07:25:26;31.27;;;14.32;;
74656;SDS011;63185;45.642;13.764;2023-04-07T07:27:52;29.50;;;12.95;;
74656;SDS011;63185;45.642;13.764;2023-04-07T07:30:21;32.13;;;13.15;;
74656;SDS011;63185;45.642;13.764;2023-04-07T07:32:47;31.42;;;14.60;;
74656;SDS011;63185;45.642;13.764;2023-04-07T07:35:13;33.63;;;17.08;;
74656;SDS011;63185;45.642;13.764;2023-04-07T07:37:40;29.00;;;15.40;;
74656;SDS011;63185;45.642;13.764;2023-04-07T07:40:06;27.13;;;14.02;;
74656;SDS011;63185;45.642;13.764;2023-04-07T07:42:32;34.47;;;15.35;;
74656;SDS011;63185;45.642;13.764;2023-04-07T07:44:58;23.60;;;11.05;;
74656;SDS011;63185;45.642;13.764;2023-04-07T07:47:24;31.88;;;15.77;;
74656;SDS011;63185;45.642;13.764;2023-04-07T07:49:50;29.83;;;16.20;;
74656;SDS011;63185;45.642;13.764;2023-04-07T07:52:16;33.20;;;16.08;;
74656;SDS011;63185;45.642;13.764;2023-04-07T07:54:42;28.17;;;15.27;;
74656;SDS011;63185;45.642;13.764;2023-04-07T07:57:08;55.63;;;17.58;;
74656;SDS011;63185;45.642;13.764;2023-04-07T07:59:33;32.33;;;16.52;;
74656;SDS011;63185;45.642;13.764;2023-04-07T08:01:59;31.50;;;15.50;;
74656;SDS011;63185;45.642;13.764;2023-04-07T08:04:25;29.10;;;15.30;;
74656;SDS011;63185;45.642;13.764;2023-04-07T08:06:51;32.35;;;16.40;;
74656;SDS011;63185;45.642;13.764;2023-04-07T08:09:17;31.52;;;16.27;;
74656;SDS011;63185;45.642;13.764;2023-04-07T08:11:44;27.42;;;15.50;;
74656;SDS011;63185;45.642;13.764;2023-04-07T08:14:10;31.20;;;16.98;;
74656;SDS011;63185;45.642;13.764;2023-04-07T08:16:36;29.98;;;16.25;;
74656;SDS011;63185;45.642;13.764;2023-04-07T08:19:01;29.33;;;16.33;;
74656;SDS011;63185;45.642;13.764;2023-04-07T08:21:27;28.58;;;16.67;;
74656;SDS011;63185;45.642;13.764;2023-04-07T08:23:53;32.50;;;16.05;;
74656;SDS011;63185;45.642;13.764;2023-04-07T08:26:20;31.20;;;15.63;;
74656;SDS011;63185;45.642;13.764;2023-04-07T08:28:46;31.83;;;15.63;;
74656;SDS011;63185;45.642;13.764;2023-04-07T08:31:15;32.70;;;14.75;;
74656;SDS011;63185;45.642;13.764;2023-04-07T08:33:41;28.42;;;14.65;;
74656;SDS011;63185;45.642;13.764;2023-04-07T08:36:07;31.02;;;14.45;;
74656;SDS011;63185;45.642;13.764;2023-04-07T08:38:32;28.55;;;13.98;;
74656;SDS011;63185;45.642;13.764;2023-04-07T08:41:09;29.30;;;13.77;;
74656;SDS011;63185;45.642;13.764;2023-04-07T08:43:37;28.98;;;13.60;;
74656;SDS011;63185;45.642;13.764;2023-04-07T08:46:04;24.40;;;12.88;;
74656;SDS011;63185;45.642;13.764;2023-04-07T08:48:31;30.35;;;13.65;;
74656;SDS011;63185;45.642;13.764;2023-04-07T08:50:59;25.42;;;13.13;;
74656;SDS011;63185;45.642;13.764;2023-04-07T08:53:34;27.13;;;12.23;;
74656;SDS011;63185;45.642;13.764;2023-04-07T08:56:19;26.35;;;12.68;;
74656;SDS011;63185;45.642;13.764;2023-04-07T08:58:46;25.55;;;12.55;;
74656;SDS011;63185;45.642;13.764;2023-04-07T09:01:13;28.35;;;12.52;;
74656;SDS011;63185;45.642;13.764;2023-04-07T09:03:45;28.77;;;11.63;;
74656;SDS011;63185;45.642;13.764;2023-04-07T09:06:12;27.77;;;14.50;;
74656;SDS011;63185;45.642;13.764;2023-04-07T09:08:39;29.30;;;13.75;;
74656;SDS011;63185;45.642;13.764;2023-04-07T09:11:04;22.35;;;11.88;;
74656;SDS011;63185;45.642;13.764;2023-04-07T09:13:30;22.63;;;11.93;;
74656;SDS011;63185;45.642;13.764;2023-04-07T09:15:56;23.02;;;11.80;;
74656;SDS011;63185;45.642;13.764;2023-04-07T09:18:23;22.13;;;11.98;;
74656;SDS011;63185;45.642;13.764;2023-04-07T09:21:01;26.20;;;12.63;;
74656;SDS011;63185;45.642;13.764;2023-04-07T09:25:59;22.05;;;12.10;;
74656;SDS011;63185;45.642;13.764;2023-04-07T09:28:42;23.13;;;12.23;;
74656;SDS011;63185;45.642;13.764;2023-04-07T09:31:09;23.90;;;11.93;;
74656;SDS011;63185;45.642;13.764;2023-04-07T09:33:35;23.42;;;12.45;;
74656;SDS011;63185;45.642;13.764;2023-04-07T09:36:04;26.33;;;13.32;;
74656;SDS011;63185;45.642;13.764;2023-04-07T09:38:34;22.92;;;11.93;;
74656;SDS011;63185;45.642;13.764;2023-04-07T09:41:05;26.83;;;12.52;;
74656;SDS011;63185;45.642;13.764;2023-04-07T09:43:44;25.90;;;13.40;;
74656;SDS011;63185;45.642;13.764;2023-04-07T09:46:11;27.60;;;12.75;;
74656;SDS011;63185;45.642;13.764;2023-04-07T09:48:38;27.77;;;14.32;;
74656;SDS011;63185;45.642;13.764;2023-04-07T09:51:06;31.63;;;13.15;;
74656;SDS011;63185;45.642;13.764;2023-04-07T09:53:40;28.35;;;12.75;;
74656;SDS011;63185;45.642;13.764;2023-04-07T09:56:07;27.20;;;13.40;;
74656;SDS011;63185;45.642;13.764;2023-04-07T09:58:37;30.40;;;14.55;;
74656;SDS011;63185;45.642;13.764;2023-04-07T10:01:06;25.52;;;13.82;;
74656;SDS011;63185;45.642;13.764;2023-04-07T10:03:36;27.05;;;14.05;;
74656;SDS011;63185;45.642;13.764;2023-04-07T10:06:02;28.20;;;14.50;;
74656;SDS011;63185;45.642;13.764;2023-04-07T10:08:30;28.33;;;14.63;;
74656;SDS011;63185;45.642;13.764;2023-04-07T10:10:58;27.58;;;14.57;;
74656;SDS011;63185;45.642;13.764;2023-04-07T10:13:31;32.05;;;15.63;;
74656;SDS011;63185;45.642;13.764;2023-04-07T10:16:04;31.23;;;17.40;;
74656;SDS011;63185;45.642;13.764;2023-04-07T10:18:32;32.60;;;16.27;;
74656;SDS011;63185;45.642;13.764;2023-04-07T10:20:59;31.58;;;16.05;;
74656;SDS011;63185;45.642;13.764;2023-04-07T10:23:47;30.95;;;15.55;;
74656;SDS011;63185;45.642;13.764;2023-04-07T10:26:33;32.75;;;15.32;;
74656;SDS011;63185;45.642;13.764;2023-04-07T10:29:05;33.28;;;15.82;;
74656;SDS011;63185;45.642;13.764;2023-04-07T10:31:36;28.50;;;14.80;;
74656;SDS011;63185;45.642;13.764;2023-04-07T10:34:02;30.27;;;14.77;;
74656;SDS011;63185;45.642;13.764;2023-04-07T10:36:29;30.75;;;15.55;;
74656;SDS011;63185;45.642;13.764;2023-04-07T10:41:34;31.77;;;15.48;;
74656;SDS011;63185;45.642;13.764;2023-04-07T10:44:08;29.42;;;14.80;;
74656;SDS011;63185;45.642;13.764;2023-04-07T10:49:21;29.55;;;15.25;;
74656;SDS011;63185;45.642;13.764;2023-04-07T10:52:31;27.60;;;15.07;;
74656;SDS011;63185;45.642;13.764;2023-04-07T10:54:35;28.73;;;15.05;;
74656;SDS011;63185;45.642;13.764;2023-04-07T10:59:27;35.83;;;16.85;;
74656;SDS011;63185;45.642;13.764;2023-04-07T11:04:38;28.80;;;15.43;;
74656;SDS011;63185;45.642;13.764;2023-04-07T11:07:05;28.00;;;15.40;;
74656;SDS011;63185;45.642;13.764;2023-04-07T11:09:31;28.70;;;15.02;;
74656;SDS011;63185;45.642;13.764;2023-04-07T11:11:57;27.75;;;14.88;;
74656;SDS011;63185;45.642;13.764;2023-04-07T11:14:29;29.88;;;14.63;;
74656;SDS011;63185;45.642;13.764;2023-04-07T11:16:55;27.67;;;14.60;;
74656;SDS011;63185;45.642;13.764;2023-04-07T11:19:22;30.52;;;15.35;;
74656;SDS011;63185;45.642;13.764;2023-04-07T11:21:48;34.35;;;16.80;;
74656;SDS011;63185;45.642;13.764;2023-04-07T11:27:04;31.02;;;15.30;;
74656;SDS011;63185;45.642;13.764;2023-04-07T11:29:31;33.50;;;16.50;;
74656;SDS011;63185;45.642;13.764;2023-04-07T11:31:57;31.38;;;14.75;;
74656;SDS011;63185;45.642;13.764;2023-04-07T11:34:33;28.42;;;14.68;;
74656;SDS011;63185;45.642;13.764;2023-04-07T11:39:55;33.13;;;15.10;;
74656;SDS011;63185;45.642;13.764;2023-04-07T11:42:34;29.00;;;15.07;;
74656;SDS011;63185;45.642;13.764;2023-04-07T11:45:02;29.63;;;14.88;;
74656;SDS011;63185;45.642;13.764;2023-04-07T11:47:35;28.40;;;14.15;;
74656;SDS011;63185;45.642;13.764;2023-04-07T11:50:02;25.95;;;14.75;;
74656;SDS011;63185;45.642;13.764;2023-04-07T11:52:27;28.15;;;14.65;;
74656;SDS011;63185;45.642;13.764;2023-04-07T11:54:53;27.92;;;14.60;;
74656;SDS011;63185;45.642;13.764;2023-04-07T11:57:23;26.77;;;15.02;;
74656;SDS011;63185;45.642;13.764;2023-04-07T12:00:05;24.63;;;14.18;;
74656;SDS011;63185;45.642;13.764;2023-04-07T12:02:32;25.80;;;13.75;;
74656;SDS011;63185;45.642;13.764;2023-04-07T12:04:58;26.67;;;13.50;;
74656;SDS011;63185;45.642;13.764;2023-04-07T12:07:24;30.35;;;14.80;;
74656;SDS011;63185;45.642;13.764;2023-04-07T12:09:52;26.33;;;13.85;;
74656;SDS011;63185;45.642;13.764;2023-04-07T12:12:27;26.88;;;14.45;;
74656;SDS011;63185;45.642;13.764;2023-04-07T12:14:54;23.95;;;13.23;;
74656;SDS011;63185;45.642;13.764;2023-04-07T12:19:46;23.73;;;14.15;;
74656;SDS011;63185;45.642;13.764;2023-04-07T12:22:12;26.25;;;14.07;;
74656;SDS011;63185;45.642;13.764;2023-04-07T12:24:38;25.60;;;14.52;;
74656;SDS011;63185;45.642;13.764;2023-04-07T12:27:03;26.33;;;14.27;;
74656;SDS011;63185;45.642;13.764;2023-04-07T12:29:29;24.38;;;14.52;;
74656;SDS011;63185;45.642;13.764;2023-04-07T12:31:55;27.23;;;14.93;;
74656;SDS011;63185;45.642;13.764;2023-04-07T12:34:21;25.17;;;15.02;;
74656;SDS011;63185;45.642;13.764;2023-04-07T12:36:47;24.77;;;14.93;;
74656;SDS011;63185;45.642;13.764;2023-04-07T12:39:13;30.63;;;15.93;;
74656;SDS011;63185;45.642;13.764;2023-04-07T12:41:40;26.83;;;16.10;;
74656;SDS011;63185;45.642;13.764;2023-04-07T12:44:06;25.38;;;15.70;;
74656;SDS011;63185;45.642;13.764;2023-04-07T12:46:32;26.48;;;16.80;;
74656;SDS011;63185;45.642;13.764;2023-04-07T12:48:58;24.90;;;16.10;;
74656;SDS011;63185;45.642;13.764;2023-04-07T12:51:24;26.98;;;16.65;;
74656;SDS011;63185;45.642;13.764;2023-04-07T12:53:50;27.25;;;15.63;;
74656;SDS011;63185;45.642;13.764;2023-04-07T12:56:16;26.65;;;16.23;;
74656;SDS011;63185;45.642;13.764;2023-04-07T12:58:41;27.67;;;17.52;;
74656;SDS011;63185;45.642;13.764;2023-04-07T13:01:07;24.05;;;15.40;;
74656;SDS011;63185;45.642;13.764;2023-04-07T13:03:33;26.35;;;16.45;;
74656;SDS011;63185;45.642;13.764;2023-04-07T13:05:59;27.77;;;15.35;;
74656;SDS011;63185;45.642;13.764;2023-04-07T13:08:28;25.88;;;15.40;;
74656;SDS011;63185;45.642;13.764;2023-04-07T13:10:54;25.58;;;15.20;;
74656;SDS011;63185;45.642;13.764;2023-04-07T13:13:20;25.80;;;15.43;;
74656;SDS011;63185;45.642;13.764;2023-04-07T13:15:47;29.00;;;15.65;;
74656;SDS011;63185;45.642;13.764;2023-04-07T13:18:13;25.27;;;15.45;;
74656;SDS011;63185;45.642;13.764;2023-04-07T13:20:38;27.05;;;14.68;;
74656;SDS011;63185;45.642;13.764;2023-04-07T13:23:04;29.38;;;14.60;;
74656;SDS011;63185;45.642;13.764;2023-04-07T13:25:30;25.08;;;14.57;;
74656;SDS011;63185;45.642;13.764;2023-04-07T13:27:56;27.00;;;15.30;;
74656;SDS011;63185;45.642;13.764;2023-04-07T13:30:23;23.42;;;13.98;;
74656;SDS011;63185;45.642;13.764;2023-04-07T13:32:49;25.77;;;15.00;;
74656;SDS011;63185;45.642;13.764;2023-04-07T13:35:16;27.30;;;14.95;;
74656;SDS011;63185;45.642;13.764;2023-04-07T13:37:42;24.92;;;15.63;;
74656;SDS011;63185;45.642;13.764;2023-04-07T13:40:09;23.48;;;14.95;;
74656;SDS011;63185;45.642;13.764;2023-04-07T13:42:36;27.27;;;15.68;;
74656;SDS011;63185;45.642;13.764;2023-04-07T13:45:02;24.33;;;15.32;;
74656;SDS011;63185;45.642;13.764;2023-04-07T13:47:28;30.48;;;15.18;;
74656;SDS011;63185;45.642;13.764;2023-04-07T13:49:58;29.58;;;15.48;;
74656;SDS011;63185;45.642;13.764;2023-04-07T13:52:25;23.45;;;14.43;;
74656;SDS011;63185;45.642;13.764;2023-04-07T13:54:53;29.27;;;15.30;;
74656;SDS011;63185;45.642;13.764;2023-04-07T13:57:20;22.60;;;14.15;;
74656;SDS011;63185;45.642;13.764;2023-04-07T13:59:47;25.95;;;14.05;;
74656;SDS011;63185;45.642;13.764;2023-04-07T14:02:16;23.70;;;14.10;;
74656;SDS011;63185;45.642;13.764;2023-04-07T14:04:42;21.50;;;13.55;;
74656;SDS011;63185;45.642;13.764;2023-04-07T14:07:08;21.50;;;13.95;;
74656;SDS011;63185;45.642;13.764;2023-04-07T14:09:33;23.65;;;12.95;;
74656;SDS011;63185;45.642;13.764;2023-04-07T14:11:59;19.95;;;13.80;;
74656;SDS011;63185;45.642;13.764;2023-04-07T14:14:25;21.00;;;13.48;;
74656;SDS011;63185;45.642;13.764;2023-04-07T14:16:51;18.70;;;12.52;;
74656;SDS011;63185;45.642;13.764;2023-04-07T14:19:20;23.70;;;13.60;;
74656;SDS011;63185;45.642;13.764;2023-04-07T14:21:52;19.88;;;12.30;;
74656;SDS011;63185;45.642;13.764;2023-04-07T14:24:17;19.60;;;12.20;;
74656;SDS011;63185;45.642;13.764;2023-04-07T14:26:43;22.50;;;13.98;;
74656;SDS011;63185;45.642;13.764;2023-04-07T14:29:12;22.52;;;12.38;;
74656;SDS011;63185;45.642;13.764;2023-04-07T14:31:38;22.85;;;12.50;;
74656;SDS011;63185;45.642;13.764;2023-04-07T14:34:04;22.90;;;13.25;;
74656;SDS011;63185;45.642;13.764;2023-04-07T14:36:32;20.27;;;12.57;;
74656;SDS011;63185;45.642;13.764;2023-04-07T14:38:58;22.95;;;12.73;;